sensor_id;sensor_type;location;lat;lon;timestamp;pressure;altitude;pressure_sealevel;temperature;humidity
5954;BME280;3002;42.642;24.812;2023-06-19T00:01:44;96258.03;;;24.57;65.97
5954;BME280;3002;42.642;24.812;2023-06-19T00:04:10;96269.00;;;24.53;65.93
5954;BME280;3002;42.642;24.812;2023-06-19T00:06:36;96263.44;;;24.46;65.19
5954;BME280;3002;42.642;24.812;2023-06-19T00:09:01;96289.44;;;24.70;65.51
5954;BME280;3002;42.642;24.812;2023-06-19T00:11:27;96276.47;;;24.64;65.75
5954;BME280;3002;42.642;24.812;2023-06-19T00:13:53;96274.16;;;24.66;65.42
5954;BME280;3002;42.642;24.812;2023-06-19T00:16:18;96249.28;;;24.37;65.69
5954;BME280;3002;42.642;24.812;2023-06-19T00:18:47;96264.31;;;24.61;65.59
5954;BME280;3002;42.642;24.812;2023-06-19T00:21:13;96263.66;;;24.23;66.49
5954;BME280;3002;42.642;24.812;2023-06-19T00:23:39;96264.88;;;24.29;65.99
5954;BME280;3002;42.642;24.812;2023-06-19T00:26:04;96254.28;;;24.90;63.68
5954;BME280;3002;42.642;24.812;2023-06-19T00:28:30;96261.09;;;24.45;64.92
5954;BME280;3002;42.642;24.812;2023-06-19T00:30:56;96273.38;;;24.69;64.40
5954;BME280;3002;42.642;24.812;2023-06-19T00:33:22;96266.25;;;24.57;63.92
5954;BME280;3002;42.642;24.812;2023-06-19T00:35:50;96279.28;;;24.74;63.71
5954;BME280;3002;42.642;24.812;2023-06-19T00:38:15;96266.34;;;24.75;63.94
5954;BME280;3002;42.642;24.812;2023-06-19T00:40:41;96270.19;;;24.63;64.08
5954;BME280;3002;42.642;24.812;2023-06-19T00:43:06;96275.81;;;24.85;63.17
5954;BME280;3002;42.642;24.812;2023-06-19T00:45:32;96280.31;;;24.52;64.80
5954;BME280;3002;42.642;24.812;2023-06-19T00:47:58;96271.78;;;24.64;65.02
5954;BME280;3002;42.642;24.812;2023-06-19T00:50:25;96273.69;;;24.56;64.84
5954;BME280;3002;42.642;24.812;2023-06-19T00:52:50;96254.84;;;24.48;65.52
5954;BME280;3002;42.642;24.812;2023-06-19T00:55:17;96265.44;;;24.49;66.34
5954;BME280;3002;42.642;24.812;2023-06-19T00:57:43;96269.97;;;24.93;64.56
5954;BME280;3002;42.642;24.812;2023-06-19T01:00:10;96267.88;;;24.69;64.58
5954;BME280;3002;42.642;24.812;2023-06-19T01:02:38;96258.84;;;24.61;64.04
5954;BME280;3002;42.642;24.812;2023-06-19T01:05:06;96238.06;;;24.56;64.19
5954;BME280;3002;42.642;24.812;2023-06-19T01:10:29;96281.28;;;24.88;62.33
5954;BME280;3002;42.642;24.812;2023-06-19T01:13:01;96265.59;;;24.78;62.83
5954;BME280;3002;42.642;24.812;2023-06-19T01:15:28;96266.16;;;24.43;62.98
5954;BME280;3002;42.642;24.812;2023-06-19T01:17:56;96277.69;;;24.70;63.04
5954;BME280;3002;42.642;24.812;2023-06-19T01:20:23;96263.38;;;25.05;62.14
5954;BME280;3002;42.642;24.812;2023-06-19T01:22:49;96260.06;;;24.74;63.19
5954;BME280;3002;42.642;24.812;2023-06-19T01:25:14;96278.75;;;24.51;63.53
5954;BME280;3002;42.642;24.812;2023-06-19T01:27:41;96269.25;;;24.38;64.43
5954;BME280;3002;42.642;24.812;2023-06-19T01:30:11;96284.72;;;24.71;63.45
5954;BME280;3002;42.642;24.812;2023-06-19T01:32:48;96283.09;;;24.55;63.72
5954;BME280;3002;42.642;24.812;2023-06-19T01:35:23;96286.94;;;24.44;65.61
5954;BME280;3002;42.642;24.812;2023-06-19T01:37:50;96286.81;;;24.29;65.41
5954;BME280;3002;42.642;24.812;2023-06-19T01:40:18;96286.25;;;24.65;66.06
5954;BME280;3002;42.642;24.812;2023-06-19T01:42:47;96270.44;;;24.37;66.40
5954;BME280;3002;42.642;24.812;2023-06-19T01:45:13;96290.63;;;24.18;67.54
5954;BME280;3002;42.642;24.812;2023-06-19T01:47:39;96279.16;;;24.01;70.67
5954;BME280;3002;42.642;24.812;2023-06-19T01:50:05;96273.00;;;23.34;74.01
5954;BME280;3002;42.642;24.812;2023-06-19T01:52:31;96287.09;;;22.76;80.56
5954;BME280;3002;42.642;24.812;2023-06-19T01:54:57;96270.34;;;23.41;76.40
5954;BME280;3002;42.642;24.812;2023-06-19T01:57:22;96280.06;;;23.38;77.66
5954;BME280;3002;42.642;24.812;2023-06-19T01:59:48;96271.81;;;22.98;79.00
5954;BME280;3002;42.642;24.812;2023-06-19T02:02:13;96291.72;;;22.98;79.34
5954;BME280;3002;42.642;24.812;2023-06-19T02:04:38;96286.47;;;22.86;79.59
5954;BME280;3002;42.642;24.812;2023-06-19T02:07:04;96286.75;;;23.07;80.19
5954;BME280;3002;42.642;24.812;2023-06-19T02:09:30;96280.63;;;22.61;83.47
5954;BME280;3002;42.642;24.812;2023-06-19T02:11:55;96290.13;;;23.27;80.04
5954;BME280;3002;42.642;24.812;2023-06-19T02:14:21;96296.97;;;23.14;80.13
5954;BME280;3002;42.642;24.812;2023-06-19T02:16:46;96278.09;;;22.45;84.90
5954;BME280;3002;42.642;24.812;2023-06-19T02:19:12;96303.56;;;22.79;82.54
5954;BME280;3002;42.642;24.812;2023-06-19T02:21:38;96305.41;;;22.98;83.59
5954;BME280;3002;42.642;24.812;2023-06-19T02:24:04;96317.91;;;22.73;86.45
5954;BME280;3002;42.642;24.812;2023-06-19T02:26:30;96302.09;;;22.59;86.17
5954;BME280;3002;42.642;24.812;2023-06-19T02:28:56;96308.19;;;22.75;81.38
5954;BME280;3002;42.642;24.812;2023-06-19T02:31:22;96287.50;;;23.04;80.90
5954;BME280;3002;42.642;24.812;2023-06-19T02:33:48;96308.47;;;22.96;81.56
5954;BME280;3002;42.642;24.812;2023-06-19T02:36:14;96291.84;;;23.09;80.46
5954;BME280;3002;42.642;24.812;2023-06-19T02:38:47;96296.63;;;22.59;84.81
5954;BME280;3002;42.642;24.812;2023-06-19T02:41:13;96283.06;;;22.66;80.68
5954;BME280;3002;42.642;24.812;2023-06-19T02:43:40;96310.09;;;23.31;78.27
5954;BME280;3002;42.642;24.812;2023-06-19T02:46:06;96305.66;;;23.19;72.72
5954;BME280;3002;42.642;24.812;2023-06-19T02:48:31;96298.94;;;22.57;80.85
5954;BME280;3002;42.642;24.812;2023-06-19T02:50:57;96306.31;;;22.79;81.49
5954;BME280;3002;42.642;24.812;2023-06-19T02:53:22;96293.69;;;22.71;82.36
5954;BME280;3002;42.642;24.812;2023-06-19T02:55:48;96316.63;;;22.13;86.90
5954;BME280;3002;42.642;24.812;2023-06-19T02:58:13;96333.34;;;21.89;90.77
5954;BME280;3002;42.642;24.812;2023-06-19T03:00:39;96309.81;;;21.38;95.88
5954;BME280;3002;42.642;24.812;2023-06-19T03:03:05;96312.53;;;21.38;96.48
5954;BME280;3002;42.642;24.812;2023-06-19T03:05:30;96330.16;;;21.83;92.79
5954;BME280;3002;42.642;24.812;2023-06-19T03:07:56;96306.72;;;21.59;94.68
5954;BME280;3002;42.642;24.812;2023-06-19T03:10:21;96326.25;;;22.30;88.94
5954;BME280;3002;42.642;24.812;2023-06-19T03:12:47;96336.84;;;22.58;86.89
5954;BME280;3002;42.642;24.812;2023-06-19T03:15:12;96311.19;;;22.13;87.87
5954;BME280;3002;42.642;24.812;2023-06-19T03:17:38;96308.91;;;21.96;91.22
5954;BME280;3002;42.642;24.812;2023-06-19T03:20:04;96328.84;;;22.73;84.10
5954;BME280;3002;42.642;24.812;2023-06-19T03:22:31;96317.47;;;21.52;93.38
5954;BME280;3002;42.642;24.812;2023-06-19T03:24:57;96318.81;;;22.27;80.89
5954;BME280;3002;42.642;24.812;2023-06-19T03:27:22;96323.63;;;22.87;77.07
5954;BME280;3002;42.642;24.812;2023-06-19T03:29:51;96316.38;;;22.75;78.34
5954;BME280;3002;42.642;24.812;2023-06-19T03:32:17;96320.28;;;22.48;85.35
5954;BME280;3002;42.642;24.812;2023-06-19T03:34:42;96331.38;;;22.58;85.26
5954;BME280;3002;42.642;24.812;2023-06-19T03:37:08;96326.53;;;22.75;82.95
5954;BME280;3002;42.642;24.812;2023-06-19T03:39:33;96310.59;;;22.54;86.05
5954;BME280;3002;42.642;24.812;2023-06-19T03:41:59;96318.94;;;22.11;90.46
5954;BME280;3002;42.642;24.812;2023-06-19T03:44:24;96323.91;;;22.29;87.10
5954;BME280;3002;42.642;24.812;2023-06-19T03:46:50;96328.03;;;21.54;95.81
5954;BME280;3002;42.642;24.812;2023-06-19T03:49:16;96309.56;;;22.12;86.87
5954;BME280;3002;42.642;24.812;2023-06-19T03:51:42;96331.91;;;22.67;84.06
5954;BME280;3002;42.642;24.812;2023-06-19T03:54:08;96328.47;;;22.48;83.65
5954;BME280;3002;42.642;24.812;2023-06-19T03:56:33;96339.28;;;22.14;87.27
5954;BME280;3002;42.642;24.812;2023-06-19T03:58:59;96319.91;;;22.76;84.46
5954;BME280;3002;42.642;24.812;2023-06-19T04:01:24;96329.25;;;23.01;82.10
5954;BME280;3002;42.642;24.812;2023-06-19T04:03:50;96336.22;;;22.95;83.25
5954;BME280;3002;42.642;24.812;2023-06-19T04:06:15;96322.00;;;22.86;82.09
5954;BME280;3002;42.642;24.812;2023-06-19T04:08:41;96340.66;;;23.37;82.44
5954;BME280;3002;42.642;24.812;2023-06-19T04:11:06;96334.06;;;23.75;78.51
5954;BME280;3002;42.642;24.812;2023-06-19T04:13:32;96338.41;;;23.12;82.00
5954;BME280;3002;42.642;24.812;2023-06-19T04:15:57;96337.00;;;22.69;86.16
5954;BME280;3002;42.642;24.812;2023-06-19T04:18:23;96334.59;;;23.54;79.95
5954;BME280;3002;42.642;24.812;2023-06-19T04:20:48;96345.16;;;23.89;79.35
5954;BME280;3002;42.642;24.812;2023-06-19T04:23:13;96351.09;;;23.98;78.24
5954;BME280;3002;42.642;24.812;2023-06-19T04:25:39;96331.56;;;24.00;77.12
5954;BME280;3002;42.642;24.812;2023-06-19T04:28:04;96339.13;;;24.62;75.09
5954;BME280;3002;42.642;24.812;2023-06-19T04:30:30;96342.97;;;24.50;74.85
5954;BME280;3002;42.642;24.812;2023-06-19T04:32:59;96349.91;;;24.37;75.75
5954;BME280;3002;42.642;24.812;2023-06-19T04:35:25;96323.00;;;25.19;71.55
5954;BME280;3002;42.642;24.812;2023-06-19T04:37:50;96343.13;;;25.37;71.58
5954;BME280;3002;42.642;24.812;2023-06-19T04:40:16;96345.94;;;25.73;70.39
5954;BME280;3002;42.642;24.812;2023-06-19T04:42:41;96342.91;;;25.92;68.98
5954;BME280;3002;42.642;24.812;2023-06-19T04:45:07;96330.38;;;26.09;68.06
5954;BME280;3002;42.642;24.812;2023-06-19T04:47:34;96340.91;;;25.78;69.98
5954;BME280;3002;42.642;24.812;2023-06-19T04:50:00;96333.06;;;25.84;70.36
5954;BME280;3002;42.642;24.812;2023-06-19T04:52:25;96313.84;;;25.73;70.36
5954;BME280;3002;42.642;24.812;2023-06-19T04:54:51;96337.03;;;26.33;68.27
5954;BME280;3002;42.642;24.812;2023-06-19T04:57:16;96333.91;;;26.17;67.78
5954;BME280;3002;42.642;24.812;2023-06-19T04:59:45;96343.28;;;25.80;70.47
5954;BME280;3002;42.642;24.812;2023-06-19T05:02:11;96349.59;;;26.27;69.03
5954;BME280;3002;42.642;24.812;2023-06-19T05:04:36;96330.38;;;26.70;67.39
5954;BME280;3002;42.642;24.812;2023-06-19T05:07:02;96344.06;;;26.91;66.59
5954;BME280;3002;42.642;24.812;2023-06-19T05:09:28;96332.66;;;27.07;65.44
5954;BME280;3002;42.642;24.812;2023-06-19T05:11:54;96340.53;;;26.98;66.01
5954;BME280;3002;42.642;24.812;2023-06-19T05:14:20;96348.72;;;24.93;75.18
5954;BME280;3002;42.642;24.812;2023-06-19T05:16:45;96352.53;;;25.47;72.10
5954;BME280;3002;42.642;24.812;2023-06-19T05:19:11;96354.72;;;26.39;68.55
5954;BME280;3002;42.642;24.812;2023-06-19T05:21:36;96345.63;;;27.13;66.15
5954;BME280;3002;42.642;24.812;2023-06-19T05:24:02;96343.66;;;26.92;67.20
5954;BME280;3002;42.642;24.812;2023-06-19T05:26:28;96345.66;;;26.99;68.54
5954;BME280;3002;42.642;24.812;2023-06-19T05:28:53;96356.72;;;26.46;71.14
5954;BME280;3002;42.642;24.812;2023-06-19T05:31:19;96335.91;;;26.41;68.88
5954;BME280;3002;42.642;24.812;2023-06-19T05:33:44;96353.13;;;26.17;72.06
5954;BME280;3002;42.642;24.812;2023-06-19T05:36:10;96356.53;;;27.42;67.29
5954;BME280;3002;42.642;24.812;2023-06-19T05:38:36;96358.16;;;27.36;68.17
5954;BME280;3002;42.642;24.812;2023-06-19T05:41:02;96354.31;;;26.23;72.89
5954;BME280;3002;42.642;24.812;2023-06-19T05:43:28;96366.03;;;27.27;68.25
5954;BME280;3002;42.642;24.812;2023-06-19T05:45:54;96346.09;;;26.58;70.65
5954;BME280;3002;42.642;24.812;2023-06-19T05:48:21;96361.88;;;27.85;66.17
5954;BME280;3002;42.642;24.812;2023-06-19T05:50:47;96369.09;;;27.50;65.94
5954;BME280;3002;42.642;24.812;2023-06-19T05:53:12;96360.38;;;27.69;66.94
5954;BME280;3002;42.642;24.812;2023-06-19T05:55:38;96369.69;;;27.93;64.62
5954;BME280;3002;42.642;24.812;2023-06-19T05:58:03;96367.13;;;27.51;68.44
5954;BME280;3002;42.642;24.812;2023-06-19T06:00:30;96365.63;;;27.28;66.72
5954;BME280;3002;42.642;24.812;2023-06-19T06:02:57;96370.00;;;28.06;65.05
5954;BME280;3002;42.642;24.812;2023-06-19T06:05:25;96368.66;;;27.62;65.09
5954;BME280;3002;42.642;24.812;2023-06-19T06:07:52;96373.06;;;28.22;64.31
5954;BME280;3002;42.642;24.812;2023-06-19T06:10:20;96372.72;;;27.26;67.46
5954;BME280;3002;42.642;24.812;2023-06-19T06:12:45;96371.22;;;28.02;64.80
5954;BME280;3002;42.642;24.812;2023-06-19T06:15:11;96376.88;;;28.88;62.45
5954;BME280;3002;42.642;24.812;2023-06-19T06:17:36;96376.56;;;28.34;63.67
5954;BME280;3002;42.642;24.812;2023-06-19T06:20:02;96371.19;;;27.00;67.41
5954;BME280;3002;42.642;24.812;2023-06-19T06:22:31;96374.00;;;27.94;65.83
5954;BME280;3002;42.642;24.812;2023-06-19T06:24:57;96371.69;;;28.52;63.12
5954;BME280;3002;42.642;24.812;2023-06-19T06:27:22;96383.28;;;29.19;61.51
5954;BME280;3002;42.642;24.812;2023-06-19T06:29:48;96378.22;;;27.33;66.17
5954;BME280;3002;42.642;24.812;2023-06-19T06:32:13;96381.41;;;28.67;62.83
5954;BME280;3002;42.642;24.812;2023-06-19T06:34:39;96379.59;;;28.95;62.12
5954;BME280;3002;42.642;24.812;2023-06-19T06:37:04;96376.41;;;29.00;60.68
5954;BME280;3002;42.642;24.812;2023-06-19T06:39:29;96384.69;;;28.51;62.77
5954;BME280;3002;42.642;24.812;2023-06-19T06:41:55;96382.06;;;28.82;62.12
5954;BME280;3002;42.642;24.812;2023-06-19T06:44:21;96381.75;;;28.17;64.57
5954;BME280;3002;42.642;24.812;2023-06-19T06:46:46;96374.97;;;29.60;60.92
5954;BME280;3002;42.642;24.812;2023-06-19T06:49:12;96380.84;;;29.28;60.13
5954;BME280;3002;42.642;24.812;2023-06-19T06:51:38;96384.69;;;29.99;58.48
5954;BME280;3002;42.642;24.812;2023-06-19T06:54:03;96379.59;;;30.51;57.12
5954;BME280;3002;42.642;24.812;2023-06-19T06:56:29;96386.69;;;31.03;54.33
5954;BME280;3002;42.642;24.812;2023-06-19T06:58:55;96389.59;;;31.59;53.16
5954;BME280;3002;42.642;24.812;2023-06-19T07:01:20;96386.69;;;31.26;54.84
5954;BME280;3002;42.642;24.812;2023-06-19T07:03:46;96381.59;;;30.51;55.24
5954;BME280;3002;42.642;24.812;2023-06-19T07:06:11;96384.91;;;28.71;60.26
5954;BME280;3002;42.642;24.812;2023-06-19T07:08:37;96390.41;;;29.88;56.47
5954;BME280;3002;42.642;24.812;2023-06-19T07:11:02;96389.00;;;30.57;56.51
5954;BME280;3002;42.642;24.812;2023-06-19T07:13:28;96401.06;;;30.94;55.41
5954;BME280;3002;42.642;24.812;2023-06-19T07:15:53;96391.25;;;30.66;55.40
5954;BME280;3002;42.642;24.812;2023-06-19T07:18:18;96402.03;;;31.90;54.12
5954;BME280;3002;42.642;24.812;2023-06-19T07:20:44;96398.19;;;32.57;50.91
5954;BME280;3002;42.642;24.812;2023-06-19T07:23:10;96398.47;;;30.60;53.36
5954;BME280;3002;42.642;24.812;2023-06-19T07:25:36;96399.13;;;31.38;51.42
5954;BME280;3002;42.642;24.812;2023-06-19T07:28:01;96401.38;;;30.76;51.75
5954;BME280;3002;42.642;24.812;2023-06-19T07:30:30;96403.38;;;31.42;51.96
5954;BME280;3002;42.642;24.812;2023-06-19T07:32:55;96405.13;;;30.12;53.01
5954;BME280;3002;42.642;24.812;2023-06-19T07:35:20;96404.88;;;31.04;51.35
5954;BME280;3002;42.642;24.812;2023-06-19T07:37:46;96405.41;;;31.82;49.87
5954;BME280;3002;42.642;24.812;2023-06-19T07:40:11;96414.13;;;32.36;50.22
5954;BME280;3002;42.642;24.812;2023-06-19T07:42:37;96417.06;;;31.06;50.98
5954;BME280;3002;42.642;24.812;2023-06-19T07:45:03;96407.13;;;32.12;47.84
5954;BME280;3002;42.642;24.812;2023-06-19T07:47:28;96420.50;;;32.69;47.60
5954;BME280;3002;42.642;24.812;2023-06-19T07:49:55;96416.66;;;30.03;50.99
5954;BME280;3002;42.642;24.812;2023-06-19T07:52:20;96420.38;;;31.21;48.86
5954;BME280;3002;42.642;24.812;2023-06-19T07:54:54;96402.94;;;31.01;48.83
5954;BME280;3002;42.642;24.812;2023-06-19T07:57:21;96385.66;;;31.76;46.70
5954;BME280;3002;42.642;24.812;2023-06-19T07:59:48;96407.38;;;32.37;45.76
5954;BME280;3002;42.642;24.812;2023-06-19T08:02:13;96393.97;;;29.85;47.86
5954;BME280;3002;42.642;24.812;2023-06-19T08:04:39;96405.88;;;30.39;48.36
5954;BME280;3002;42.642;24.812;2023-06-19T08:07:05;96393.88;;;29.27;50.72
5954;BME280;3002;42.642;24.812;2023-06-19T08:09:30;96417.16;;;31.03;49.37
5954;BME280;3002;42.642;24.812;2023-06-19T08:11:57;96417.94;;;31.03;46.70
5954;BME280;3002;42.642;24.812;2023-06-19T08:14:22;96414.56;;;31.99;44.47
5954;BME280;3002;42.642;24.812;2023-06-19T08:16:48;96416.91;;;32.36;45.18
5954;BME280;3002;42.642;24.812;2023-06-19T08:19:14;96397.75;;;32.06;44.75
5954;BME280;3002;42.642;24.812;2023-06-19T08:21:40;96416.94;;;31.96;46.49
5954;BME280;3002;42.642;24.812;2023-06-19T08:24:06;96421.69;;;31.36;48.04
5954;BME280;3002;42.642;24.812;2023-06-19T08:26:32;96416.06;;;32.72;43.95
5954;BME280;3002;42.642;24.812;2023-06-19T08:28:57;96410.50;;;33.79;39.64
5954;BME280;3002;42.642;24.812;2023-06-19T08:31:22;96420.41;;;34.47;38.27
5954;BME280;3002;42.642;24.812;2023-06-19T08:33:53;96421.38;;;35.04;37.33
5954;BME280;3002;42.642;24.812;2023-06-19T08:36:19;96424.19;;;35.61;38.02
5954;BME280;3002;42.642;24.812;2023-06-19T08:38:44;96411.63;;;35.22;38.86
5954;BME280;3002;42.642;24.812;2023-06-19T08:41:12;96419.25;;;35.43;37.30
5954;BME280;3002;42.642;24.812;2023-06-19T08:43:38;96403.19;;;35.12;37.44
5954;BME280;3002;42.642;24.812;2023-06-19T08:46:10;96408.03;;;33.81;41.51
5954;BME280;3002;42.642;24.812;2023-06-19T08:48:37;96413.50;;;30.32;48.11
5954;BME280;3002;42.642;24.812;2023-06-19T08:51:05;96416.16;;;30.39;48.80
5954;BME280;3002;42.642;24.812;2023-06-19T08:53:35;96414.56;;;31.99;46.13
5954;BME280;3002;42.642;24.812;2023-06-19T08:56:04;96419.31;;;31.38;47.59
5954;BME280;3002;42.642;24.812;2023-06-19T08:58:29;96408.47;;;33.21;42.79
5954;BME280;3002;42.642;24.812;2023-06-19T09:00:58;96408.22;;;35.05;39.92
5954;BME280;3002;42.642;24.812;2023-06-19T09:03:24;96414.44;;;31.86;44.01
5954;BME280;3002;42.642;24.812;2023-06-19T09:05:50;96404.94;;;33.79;41.70
5954;BME280;3002;42.642;24.812;2023-06-19T09:08:19;96400.59;;;34.45;39.79
5954;BME280;3002;42.642;24.812;2023-06-19T09:11:01;96403.09;;;35.03;36.34
5954;BME280;3002;42.642;24.812;2023-06-19T09:13:27;96398.91;;;35.21;37.21
5954;BME280;3002;42.642;24.812;2023-06-19T09:16:00;96406.38;;;35.24;38.53
5954;BME280;3002;42.642;24.812;2023-06-19T09:18:29;96393.31;;;35.77;38.27
5954;BME280;3002;42.642;24.812;2023-06-19T09:20:55;96405.25;;;36.31;37.61
5954;BME280;3002;42.642;24.812;2023-06-19T09:23:20;96394.03;;;35.69;36.77
5954;BME280;3002;42.642;24.812;2023-06-19T09:25:57;96405.78;;;36.07;36.05
5954;BME280;3002;42.642;24.812;2023-06-19T09:28:25;96397.56;;;34.27;37.15
5954;BME280;3002;42.642;24.812;2023-06-19T09:31:03;96393.91;;;35.72;34.82
5954;BME280;3002;42.642;24.812;2023-06-19T09:33:32;96393.91;;;35.72;34.74
5954;BME280;3002;42.642;24.812;2023-06-19T09:36:07;96400.88;;;36.21;34.13
5954;BME280;3002;42.642;24.812;2023-06-19T09:38:37;96390.63;;;36.17;34.64
5954;BME280;3002;42.642;24.812;2023-06-19T09:41:05;96394.66;;;37.06;32.52
5954;BME280;3002;42.642;24.812;2023-06-19T09:43:42;96392.81;;;37.21;32.31
5954;BME280;3002;42.642;24.812;2023-06-19T09:46:08;96392.75;;;36.94;35.14
5954;BME280;3002;42.642;24.812;2023-06-19T09:48:35;96371.72;;;35.69;36.06
5954;BME280;3002;42.642;24.812;2023-06-19T09:53:34;96391.97;;;35.25;35.88
5954;BME280;3002;42.642;24.812;2023-06-19T09:56:00;96381.75;;;34.75;36.24
5954;BME280;3002;42.642;24.812;2023-06-19T09:58:26;96395.50;;;33.89;38.51
5954;BME280;3002;42.642;24.812;2023-06-19T10:00:53;96380.06;;;33.30;39.22
5954;BME280;3002;42.642;24.812;2023-06-19T10:03:20;96396.97;;;33.65;38.43
5954;BME280;3002;42.642;24.812;2023-06-19T10:05:46;96380.50;;;35.58;36.20
5954;BME280;3002;42.642;24.812;2023-06-19T10:08:11;96382.25;;;36.17;35.03
5954;BME280;3002;42.642;24.812;2023-06-19T10:10:46;96388.47;;;36.22;34.10
5954;BME280;3002;42.642;24.812;2023-06-19T10:13:15;96393.47;;;35.96;34.41
5954;BME280;3002;42.642;24.812;2023-06-19T10:15:42;96385.97;;;37.13;33.05
5954;BME280;3002;42.642;24.812;2023-06-19T10:18:16;96386.59;;;37.27;34.14
5954;BME280;3002;42.642;24.812;2023-06-19T10:20:42;96382.88;;;37.85;31.37
5954;BME280;3002;42.642;24.812;2023-06-19T10:23:14;96382.72;;;37.33;34.18
5954;BME280;3002;42.642;24.812;2023-06-19T10:25:43;96378.72;;;38.13;32.71
5954;BME280;3002;42.642;24.812;2023-06-19T10:28:21;96372.81;;;36.64;33.66
5954;BME280;3002;42.642;24.812;2023-06-19T10:30:57;96367.00;;;36.99;34.08
5954;BME280;3002;42.642;24.812;2023-06-19T10:33:26;96363.44;;;36.98;33.02
5954;BME280;3002;42.642;24.812;2023-06-19T10:35:52;96365.16;;;37.51;33.75
5954;BME280;3002;42.642;24.812;2023-06-19T10:38:17;96371.66;;;37.85;32.10
5954;BME280;3002;42.642;24.812;2023-06-19T10:40:44;96370.66;;;36.68;33.12
5954;BME280;3002;42.642;24.812;2023-06-19T10:43:11;96364.25;;;36.18;33.26
5954;BME280;3002;42.642;24.812;2023-06-19T10:45:37;96368.28;;;34.35;34.12
5954;BME280;3002;42.642;24.812;2023-06-19T10:48:04;96353.75;;;35.70;34.20
5954;BME280;3002;42.642;24.812;2023-06-19T10:50:30;96358.78;;;34.71;36.76
5954;BME280;3002;42.642;24.812;2023-06-19T10:52:58;96356.59;;;36.01;35.85
5954;BME280;3002;42.642;24.812;2023-06-19T10:55:24;96342.41;;;35.07;35.14
5954;BME280;3002;42.642;24.812;2023-06-19T10:57:50;96348.66;;;33.46;38.21
5954;BME280;3002;42.642;24.812;2023-06-19T11:00:27;96347.63;;;34.71;36.30
5954;BME280;3002;42.642;24.812;2023-06-19T11:02:53;96351.28;;;35.72;35.27
5954;BME280;3002;42.642;24.812;2023-06-19T11:05:22;96358.59;;;36.00;34.85
5954;BME280;3002;42.642;24.812;2023-06-19T11:07:56;96326.06;;;36.06;35.06
5954;BME280;3002;42.642;24.812;2023-06-19T11:10:23;96346.28;;;36.60;35.00
5954;BME280;3002;42.642;24.812;2023-06-19T11:12:50;96339.91;;;36.19;34.45
5954;BME280;3002;42.642;24.812;2023-06-19T11:15:16;96324.69;;;36.69;33.71
5954;BME280;3002;42.642;24.812;2023-06-19T11:17:41;96328.88;;;36.56;34.29
5954;BME280;3002;42.642;24.812;2023-06-19T11:20:12;96335.88;;;36.69;33.93
5954;BME280;3002;42.642;24.812;2023-06-19T11:22:39;96319.31;;;37.03;33.22
5954;BME280;3002;42.642;24.812;2023-06-19T11:25:06;96335.34;;;36.03;33.31
5954;BME280;3002;42.642;24.812;2023-06-19T11:27:32;96325.41;;;35.49;34.11
5954;BME280;3002;42.642;24.812;2023-06-19T11:29:59;96329.66;;;36.16;34.50
5954;BME280;3002;42.642;24.812;2023-06-19T11:32:34;96334.59;;;36.43;34.27
5954;BME280;3002;42.642;24.812;2023-06-19T11:35:05;96328.84;;;35.53;35.63
5954;BME280;3002;42.642;24.812;2023-06-19T11:37:32;96333.66;;;35.53;35.82
5954;BME280;3002;42.642;24.812;2023-06-19T11:39:58;96340.44;;;35.30;36.60
5954;BME280;3002;42.642;24.812;2023-06-19T11:42:25;96333.50;;;35.12;36.19
5954;BME280;3002;42.642;24.812;2023-06-19T11:44:59;96346.00;;;35.30;35.31
5954;BME280;3002;42.642;24.812;2023-06-19T11:47:30;96332.22;;;35.70;34.41
5954;BME280;3002;42.642;24.812;2023-06-19T11:49:55;96346.00;;;35.74;35.10
5954;BME280;3002;42.642;24.812;2023-06-19T11:52:21;96327.16;;;35.34;35.46
5954;BME280;3002;42.642;24.812;2023-06-19T11:54:46;96331.16;;;35.11;34.46
5954;BME280;3002;42.642;24.812;2023-06-19T11:57:12;96328.56;;;35.17;35.76
5954;BME280;3002;42.642;24.812;2023-06-19T11:59:39;96334.53;;;35.28;35.10
5954;BME280;3002;42.642;24.812;2023-06-19T12:02:05;96338.16;;;35.16;35.89
5954;BME280;3002;42.642;24.812;2023-06-19T12:04:31;96337.31;;;35.06;33.99
5954;BME280;3002;42.642;24.812;2023-06-19T12:06:57;96344.50;;;35.38;34.00
5954;BME280;3002;42.642;24.812;2023-06-19T12:09:23;96341.13;;;34.99;35.12
5954;BME280;3002;42.642;24.812;2023-06-19T12:11:48;96335.63;;;35.08;35.27
5954;BME280;3002;42.642;24.812;2023-06-19T12:14:14;96342.72;;;35.22;35.96
5954;BME280;3002;42.642;24.812;2023-06-19T12:16:39;96335.59;;;35.21;36.34
5954;BME280;3002;42.642;24.812;2023-06-19T12:19:05;96317.44;;;34.69;36.04
5954;BME280;3002;42.642;24.812;2023-06-19T12:21:30;96321.28;;;34.50;35.89
5954;BME280;3002;42.642;24.812;2023-06-19T12:23:56;96327.50;;;34.54;35.47
5954;BME280;3002;42.642;24.812;2023-06-19T12:26:21;96322.97;;;33.96;35.47
5954;BME280;3002;42.642;24.812;2023-06-19T12:28:50;96315.63;;;34.02;36.32
5954;BME280;3002;42.642;24.812;2023-06-19T12:31:15;96310.69;;;33.68;37.01
5954;BME280;3002;42.642;24.812;2023-06-19T12:33:40;96312.66;;;34.70;35.39
5954;BME280;3002;42.642;24.812;2023-06-19T12:36:10;96324.75;;;34.16;37.95
5954;BME280;3002;42.642;24.812;2023-06-19T12:38:38;96315.78;;;33.82;36.04
5954;BME280;3002;42.642;24.812;2023-06-19T12:41:04;96318.97;;;33.43;36.81
5954;BME280;3002;42.642;24.812;2023-06-19T12:43:30;96310.03;;;33.77;37.66
5954;BME280;3002;42.642;24.812;2023-06-19T12:45:57;96308.44;;;33.89;37.08
5954;BME280;3002;42.642;24.812;2023-06-19T12:48:25;96302.09;;;33.63;37.13
5954;BME280;3002;42.642;24.812;2023-06-19T12:50:50;96296.63;;;33.46;36.91
5954;BME280;3002;42.642;24.812;2023-06-19T12:53:15;96299.47;;;33.97;37.83
5954;BME280;3002;42.642;24.812;2023-06-19T12:55:41;96298.47;;;34.04;36.70
5954;BME280;3002;42.642;24.812;2023-06-19T12:58:08;96295.28;;;33.51;37.33
5954;BME280;3002;42.642;24.812;2023-06-19T13:00:33;96296.22;;;33.61;36.98
5954;BME280;3002;42.642;24.812;2023-06-19T13:02:59;96295.34;;;33.89;37.07
5954;BME280;3002;42.642;24.812;2023-06-19T13:05:25;96297.69;;;33.78;36.87
5954;BME280;3002;42.642;24.812;2023-06-19T13:07:50;96295.84;;;33.46;37.42
5954;BME280;3002;42.642;24.812;2023-06-19T13:10:16;96296.31;;;33.28;38.59
5954;BME280;3002;42.642;24.812;2023-06-19T13:12:41;96294.22;;;33.61;38.25